Login to view products.  
Friday, October 20, 2017 (19:33 UTC)
Al Ain International Airport
ICAO Code: OMAL
IATA Code: AAN
  • METAR OMAL 201900Z 33006KT CAVOK 27/17 Q1012 NOSIG=
  • TAF OMAL 201700Z 2018/2200 33006KT 8000 NSC BECMG 2020/2022 VRB02KT PROB40 2023/2105 4000 HZ PROB30 TEMPO 2100/2104 1200 BCFG BKN002 BECMG 2106/2108 29008KT=